sensor_id;sensor_type;location;lat;lon;timestamp;pressure;altitude;pressure_sealevel;temperature;humidity
57606;BME280;43430;48.204;11.556;2022-07-19T00:01:33;96468.06;;;19.89;50.20
57606;BME280;43430;48.204;11.556;2022-07-19T00:03:58;96473.41;;;19.69;51.13
57606;BME280;43430;48.204;11.556;2022-07-19T00:06:23;96470.16;;;19.62;51.06
57606;BME280;43430;48.204;11.556;2022-07-19T00:08:49;96474.97;;;19.55;51.64
57606;BME280;43430;48.204;11.556;2022-07-19T00:11:14;96469.59;;;19.50;51.70
57606;BME280;43430;48.204;11.556;2022-07-19T00:13:40;96470.94;;;19.47;51.91
57606;BME280;43430;48.204;11.556;2022-07-19T00:16:05;96471.72;;;19.48;52.24
57606;BME280;43430;48.204;11.556;2022-07-19T00:18:30;96468.53;;;19.51;52.06
57606;BME280;43430;48.204;11.556;2022-07-19T00:20:56;96476.56;;;19.51;51.96
57606;BME280;43430;48.204;11.556;2022-07-19T00:23:21;96467.19;;;19.43;52.76
57606;BME280;43430;48.204;11.556;2022-07-19T00:25:47;96470.91;;;19.27;52.80
57606;BME280;43430;48.204;11.556;2022-07-19T00:28:12;96470.66;;;19.28;53.10
57606;BME280;43430;48.204;11.556;2022-07-19T00:30:37;96471.19;;;19.30;51.91
57606;BME280;43430;48.204;11.556;2022-07-19T00:33:03;96470.13;;;19.31;52.06
57606;BME280;43430;48.204;11.556;2022-07-19T00:35:34;96466.91;;;19.29;52.16
57606;BME280;43430;48.204;11.556;2022-07-19T00:38:04;96463.69;;;19.22;52.22
57606;BME280;43430;48.204;11.556;2022-07-19T00:40:30;96469.28;;;19.15;53.21
57606;BME280;43430;48.204;11.556;2022-07-19T00:42:55;96463.13;;;19.15;52.96
57606;BME280;43430;48.204;11.556;2022-07-19T00:45:22;96464.72;;;19.06;52.78
57606;BME280;43430;48.204;11.556;2022-07-19T00:47:47;96463.91;;;19.05;53.16
57606;BME280;43430;48.204;11.556;2022-07-19T00:50:13;96471.13;;;19.00;53.71
57606;BME280;43430;48.204;11.556;2022-07-19T00:52:39;96471.00;;;18.69;54.39
57606;BME280;43430;48.204;11.556;2022-07-19T00:55:07;96464.53;;;18.60;55.15
57606;BME280;43430;48.204;11.556;2022-07-19T00:57:33;96458.41;;;18.64;55.10
57606;BME280;43430;48.204;11.556;2022-07-19T01:00:00;96467.81;;;18.72;54.12
57606;BME280;43430;48.204;11.556;2022-07-19T01:02:26;96463.50;;;18.71;54.84
57606;BME280;43430;48.204;11.556;2022-07-19T01:04:54;96461.34;;;18.68;54.13
57606;BME280;43430;48.204;11.556;2022-07-19T01:07:20;96467.75;;;18.62;54.71
57606;BME280;43430;48.204;11.556;2022-07-19T01:09:45;96460.25;;;18.59;55.09
57606;BME280;43430;48.204;11.556;2022-07-19T01:12:11;96450.09;;;18.56;55.49
57606;BME280;43430;48.204;11.556;2022-07-19T01:14:36;96455.16;;;18.57;55.70
57606;BME280;43430;48.204;11.556;2022-07-19T01:17:03;96461.31;;;18.58;55.27
57606;BME280;43430;48.204;11.556;2022-07-19T01:19:28;96457.03;;;18.57;55.74
57606;BME280;43430;48.204;11.556;2022-07-19T01:21:53;96458.34;;;18.49;55.77
57606;BME280;43430;48.204;11.556;2022-07-19T01:24:19;96462.31;;;18.46;55.88
57606;BME280;43430;48.204;11.556;2022-07-19T01:26:44;96466.59;;;18.42;56.45
57606;BME280;43430;48.204;11.556;2022-07-19T01:29:15;96464.16;;;18.41;56.55
57606;BME280;43430;48.204;11.556;2022-07-19T01:31:41;96455.84;;;18.37;56.62
57606;BME280;43430;48.204;11.556;2022-07-19T01:34:06;96458.50;;;18.32;57.27
57606;BME280;43430;48.204;11.556;2022-07-19T01:36:31;96461.19;;;18.32;56.60
57606;BME280;43430;48.204;11.556;2022-07-19T01:38:57;96460.63;;;18.30;57.09
57606;BME280;43430;48.204;11.556;2022-07-19T01:41:22;96465.44;;;18.28;57.13
57606;BME280;43430;48.204;11.556;2022-07-19T01:43:48;96463.56;;;18.29;57.06
57606;BME280;43430;48.204;11.556;2022-07-19T01:46:13;96465.16;;;18.24;57.03
57606;BME280;43430;48.204;11.556;2022-07-19T01:48:38;96464.88;;;18.21;57.25
57606;BME280;43430;48.204;11.556;2022-07-19T01:51:04;96458.97;;;18.19;56.93
57606;BME280;43430;48.204;11.556;2022-07-19T01:53:29;96457.03;;;18.09;57.64
57606;BME280;43430;48.204;11.556;2022-07-19T01:55:55;96450.31;;;18.01;58.39
57606;BME280;43430;48.204;11.556;2022-07-19T01:58:20;96460.16;;;17.96;58.22
57606;BME280;43430;48.204;11.556;2022-07-19T02:00:45;96459.84;;;17.92;58.71
57606;BME280;43430;48.204;11.556;2022-07-19T02:03:11;96463.03;;;17.89;58.92
57606;BME280;43430;48.204;11.556;2022-07-19T02:05:36;96465.16;;;17.87;58.97
57606;BME280;43430;48.204;11.556;2022-07-19T02:08:02;96459.84;;;17.87;58.72
57606;BME280;43430;48.204;11.556;2022-07-19T02:10:27;96457.69;;;17.84;59.39
57606;BME280;43430;48.204;11.556;2022-07-19T02:12:53;96455.56;;;17.86;58.85
57606;BME280;43430;48.204;11.556;2022-07-19T02:15:18;96443.53;;;17.84;59.56
57606;BME280;43430;48.204;11.556;2022-07-19T02:17:44;96444.06;;;17.86;59.60
57606;BME280;43430;48.204;11.556;2022-07-19T02:20:10;96443.84;;;17.87;59.79
57606;BME280;43430;48.204;11.556;2022-07-19T02:22:35;96434.53;;;17.90;59.92
57606;BME280;43430;48.204;11.556;2022-07-19T02:25:01;96433.19;;;17.92;59.43
57606;BME280;43430;48.204;11.556;2022-07-19T02:27:26;96440.06;;;17.83;60.03
57606;BME280;43430;48.204;11.556;2022-07-19T02:29:53;96438.72;;;17.81;60.40
57606;BME280;43430;48.204;11.556;2022-07-19T02:32:19;96430.16;;;17.78;60.12
57606;BME280;43430;48.204;11.556;2022-07-19T02:34:44;96432.50;;;17.75;61.14
57606;BME280;43430;48.204;11.556;2022-07-19T02:37:10;96428.31;;;17.79;60.01
57606;BME280;43430;48.204;11.556;2022-07-19T02:39:35;96427.25;;;17.80;59.93
57606;BME280;43430;48.204;11.556;2022-07-19T02:42:00;96426.38;;;17.74;60.31
57606;BME280;43430;48.204;11.556;2022-07-19T02:44:26;96426.63;;;17.73;60.06
57606;BME280;43430;48.204;11.556;2022-07-19T02:46:51;96423.41;;;17.71;59.96
57606;BME280;43430;48.204;11.556;2022-07-19T02:49:17;96426.34;;;17.69;60.08
57606;BME280;43430;48.204;11.556;2022-07-19T02:51:42;96426.56;;;17.63;60.35
57606;BME280;43430;48.204;11.556;2022-07-19T02:54:07;96428.94;;;17.64;60.56
57606;BME280;43430;48.204;11.556;2022-07-19T02:56:33;96424.13;;;17.61;60.73
57606;BME280;43430;48.204;11.556;2022-07-19T02:59:01;96423.53;;;17.54;60.61
57606;BME280;43430;48.204;11.556;2022-07-19T03:01:26;96420.28;;;17.47;60.70
57606;BME280;43430;48.204;11.556;2022-07-19T03:03:52;96424.22;;;17.39;60.99
57606;BME280;43430;48.204;11.556;2022-07-19T03:06:18;96426.31;;;17.32;61.69
57606;BME280;43430;48.204;11.556;2022-07-19T03:08:44;96423.56;;;17.27;61.95
57606;BME280;43430;48.204;11.556;2022-07-19T03:11:10;96431.34;;;17.01;63.06
57606;BME280;43430;48.204;11.556;2022-07-19T03:13:36;96439.91;;;17.03;62.99
57606;BME280;43430;48.204;11.556;2022-07-19T03:16:01;96429.28;;;17.08;62.65
57606;BME280;43430;48.204;11.556;2022-07-19T03:18:27;96423.19;;;17.13;62.28
57606;BME280;43430;48.204;11.556;2022-07-19T03:20:52;96437.25;;;17.08;62.36
57606;BME280;43430;48.204;11.556;2022-07-19T03:23:18;96430.56;;;17.06;62.67
57606;BME280;43430;48.204;11.556;2022-07-19T03:25:43;96429.44;;;16.97;63.28
57606;BME280;43430;48.204;11.556;2022-07-19T03:28:08;96428.84;;;16.90;63.25
57606;BME280;43430;48.204;11.556;2022-07-19T03:30:34;96431.13;;;16.81;63.50
57606;BME280;43430;48.204;11.556;2022-07-19T03:32:59;96434.78;;;16.75;63.84
57606;BME280;43430;48.204;11.556;2022-07-19T03:35:25;96438.47;;;16.74;64.30
57606;BME280;43430;48.204;11.556;2022-07-19T03:37:50;96431.53;;;16.73;64.13
57606;BME280;43430;48.204;11.556;2022-07-19T03:40:15;96440.31;;;16.73;64.78
57606;BME280;43430;48.204;11.556;2022-07-19T03:42:41;96443.38;;;16.82;64.56
57606;BME280;43430;48.204;11.556;2022-07-19T03:45:07;96443.38;;;16.82;64.05
57606;BME280;43430;48.204;11.556;2022-07-19T03:47:32;96441.28;;;16.84;64.22
57606;BME280;43430;48.204;11.556;2022-07-19T03:49:57;96436.44;;;16.81;64.06
57606;BME280;43430;48.204;11.556;2022-07-19T03:52:24;96435.88;;;16.79;64.71
57606;BME280;43430;48.204;11.556;2022-07-19T03:54:50;96434.03;;;16.79;64.49
57606;BME280;43430;48.204;11.556;2022-07-19T03:57:15;96436.13;;;16.77;64.57
57606;BME280;43430;48.204;11.556;2022-07-19T03:59:40;96433.97;;;16.74;64.35
57606;BME280;43430;48.204;11.556;2022-07-19T04:02:06;96432.69;;;16.77;64.81
57606;BME280;43430;48.204;11.556;2022-07-19T04:04:31;96427.88;;;16.79;64.70
57606;BME280;43430;48.204;11.556;2022-07-19T04:06:57;96429.25;;;16.81;64.76
57606;BME280;43430;48.204;11.556;2022-07-19T04:09:22;96432.78;;;16.87;64.67
57606;BME280;43430;48.204;11.556;2022-07-19T04:11:48;96432.28;;;16.90;64.22
57606;BME280;43430;48.204;11.556;2022-07-19T04:14:13;96436.94;;;17.00;64.19
57606;BME280;43430;48.204;11.556;2022-07-19T04:16:39;96432.63;;;16.99;64.12
57606;BME280;43430;48.204;11.556;2022-07-19T04:19:04;96443.09;;;17.05;63.59
57606;BME280;43430;48.204;11.556;2022-07-19T04:21:29;96434.69;;;17.19;63.81
57606;BME280;43430;48.204;11.556;2022-07-19T04:23:55;96436.53;;;17.45;62.12
57606;BME280;43430;48.204;11.556;2022-07-19T04:26:20;96430.97;;;17.79;61.66
57606;BME280;43430;48.204;11.556;2022-07-19T04:28:45;96430.63;;;18.08;60.51
57606;BME280;43430;48.204;11.556;2022-07-19T04:31:11;96432.66;;;18.38;59.42
57606;BME280;43430;48.204;11.556;2022-07-19T04:33:36;96431.41;;;18.56;58.66
57606;BME280;43430;48.204;11.556;2022-07-19T04:36:02;96427.69;;;18.67;58.47
57606;BME280;43430;48.204;11.556;2022-07-19T04:38:27;96430.19;;;18.84;57.37
57606;BME280;43430;48.204;11.556;2022-07-19T04:40:52;96432.06;;;18.88;56.95
57606;BME280;43430;48.204;11.556;2022-07-19T04:43:18;96427.56;;;19.04;56.50
57606;BME280;43430;48.204;11.556;2022-07-19T04:45:43;96427.31;;;19.11;56.77
57606;BME280;43430;48.204;11.556;2022-07-19T04:48:11;96421.19;;;19.26;56.00
57606;BME280;43430;48.204;11.556;2022-07-19T04:50:38;96415.56;;;19.42;54.97
57606;BME280;43430;48.204;11.556;2022-07-19T04:53:03;96409.69;;;19.61;54.14
57606;BME280;43430;48.204;11.556;2022-07-19T04:55:29;96418.00;;;19.85;53.71
57606;BME280;43430;48.204;11.556;2022-07-19T04:57:54;96414.50;;;20.10;52.39
57606;BME280;43430;48.204;11.556;2022-07-19T05:00:20;96417.06;;;20.46;51.21
57606;BME280;43430;48.204;11.556;2022-07-19T05:02:45;96420.47;;;20.72;49.97
57606;BME280;43430;48.204;11.556;2022-07-19T05:05:11;96418.75;;;20.91;49.57
57606;BME280;43430;48.204;11.556;2022-07-19T05:07:36;96423.13;;;21.21;49.16
57606;BME280;43430;48.204;11.556;2022-07-19T05:10:04;96426.59;;;21.27;48.87
57606;BME280;43430;48.204;11.556;2022-07-19T05:12:29;96431.53;;;21.09;49.39
57606;BME280;43430;48.204;11.556;2022-07-19T05:14:55;96431.28;;;21.01;49.58
57606;BME280;43430;48.204;11.556;2022-07-19T05:17:20;96428.56;;;21.11;49.42
57606;BME280;43430;48.204;11.556;2022-07-19T05:19:46;96436.00;;;21.19;49.50
57606;BME280;43430;48.204;11.556;2022-07-19T05:22:12;96427.34;;;21.38;49.03
57606;BME280;43430;48.204;11.556;2022-07-19T05:24:37;96436.69;;;21.40;47.17
57606;BME280;43430;48.204;11.556;2022-07-19T05:27:03;96429.47;;;21.41;48.28
57606;BME280;43430;48.204;11.556;2022-07-19T05:29:28;96428.41;;;21.37;46.94
57606;BME280;43430;48.204;11.556;2022-07-19T05:31:53;96431.19;;;21.21;47.33
57606;BME280;43430;48.204;11.556;2022-07-19T05:34:19;96430.38;;;21.21;47.15
57606;BME280;43430;48.204;11.556;2022-07-19T05:36:44;96423.69;;;21.18;47.66
57606;BME280;43430;48.204;11.556;2022-07-19T05:39:09;96427.53;;;21.02;48.50
57606;BME280;43430;48.204;11.556;2022-07-19T05:41:35;96423.84;;;20.88;49.13
57606;BME280;43430;48.204;11.556;2022-07-19T05:44:00;96433.03;;;20.76;49.08
57606;BME280;43430;48.204;11.556;2022-07-19T05:46:26;96430.66;;;20.65;49.21
57606;BME280;43430;48.204;11.556;2022-07-19T05:48:51;96425.25;;;20.75;49.13
57606;BME280;43430;48.204;11.556;2022-07-19T05:51:17;96428.50;;;20.67;49.33
57606;BME280;43430;48.204;11.556;2022-07-19T05:53:42;96424.94;;;20.81;48.40
57606;BME280;43430;48.204;11.556;2022-07-19T05:56:08;96418.84;;;20.76;49.29
57606;BME280;43430;48.204;11.556;2022-07-19T05:58:34;96426.31;;;20.79;49.52
57606;BME280;43430;48.204;11.556;2022-07-19T06:01:00;96420.97;;;20.79;49.09
57606;BME280;43430;48.204;11.556;2022-07-19T06:03:44;96425.78;;;20.82;49.33
57606;BME280;43430;48.204;11.556;2022-07-19T06:06:10;96421.75;;;20.79;49.19
57606;BME280;43430;48.204;11.556;2022-07-19T06:08:36;96421.97;;;20.93;49.17
57606;BME280;43430;48.204;11.556;2022-07-19T06:11:01;96422.34;;;21.16;48.80
57606;BME280;43430;48.204;11.556;2022-07-19T06:13:27;96414.47;;;21.29;48.61
57606;BME280;43430;48.204;11.556;2022-07-19T06:15:52;96409.00;;;21.50;48.32
57606;BME280;43430;48.204;11.556;2022-07-19T06:18:18;96411.09;;;21.58;48.20
57606;BME280;43430;48.204;11.556;2022-07-19T06:20:44;96412.69;;;21.59;48.10
57606;BME280;43430;48.204;11.556;2022-07-19T06:23:09;96415.44;;;21.49;48.64
57606;BME280;43430;48.204;11.556;2022-07-19T06:25:35;96416.00;;;21.46;49.34
57606;BME280;43430;48.204;11.556;2022-07-19T06:28:00;96410.00;;;21.59;49.17
57606;BME280;43430;48.204;11.556;2022-07-19T06:30:26;96409.94;;;21.64;48.67
57606;BME280;43430;48.204;11.556;2022-07-19T06:32:51;96409.81;;;21.79;48.28
57606;BME280;43430;48.204;11.556;2022-07-19T06:35:17;96408.72;;;21.80;48.28
57606;BME280;43430;48.204;11.556;2022-07-19T06:37:42;96413.34;;;22.04;47.97
57606;BME280;43430;48.204;11.556;2022-07-19T06:40:08;96406.16;;;21.99;48.09
57606;BME280;43430;48.204;11.556;2022-07-19T06:42:33;96409.56;;;22.05;48.26
57606;BME280;43430;48.204;11.556;2022-07-19T06:44:59;96405.47;;;22.13;47.48
57606;BME280;43430;48.204;11.556;2022-07-19T06:47:27;96402.28;;;22.11;46.97
57606;BME280;43430;48.204;11.556;2022-07-19T06:49:53;96402.13;;;22.26;46.48
57606;BME280;43430;48.204;11.556;2022-07-19T06:52:18;96405.78;;;22.35;46.49
57606;BME280;43430;48.204;11.556;2022-07-19T06:54:43;96404.81;;;22.50;46.67
57606;BME280;43430;48.204;11.556;2022-07-19T06:57:08;96400.97;;;22.56;46.73
57606;BME280;43430;48.204;11.556;2022-07-19T06:59:34;96397.59;;;22.69;46.22
57606;BME280;43430;48.204;11.556;2022-07-19T07:01:59;96400.06;;;22.85;45.80
57606;BME280;43430;48.204;11.556;2022-07-19T07:04:25;96406.63;;;22.79;46.84
57606;BME280;43430;48.204;11.556;2022-07-19T07:06:50;96404.63;;;22.84;47.13
57606;BME280;43430;48.204;11.556;2022-07-19T07:09:15;96403.41;;;22.77;47.44
57606;BME280;43430;48.204;11.556;2022-07-19T07:11:41;96402.69;;;22.90;47.35
57606;BME280;43430;48.204;11.556;2022-07-19T07:14:06;96408.63;;;23.11;46.47
57606;BME280;43430;48.204;11.556;2022-07-19T07:16:31;96410.00;;;23.08;46.78
57606;BME280;43430;48.204;11.556;2022-07-19T07:18:57;96407.38;;;23.22;45.67
57606;BME280;43430;48.204;11.556;2022-07-19T07:21:22;96417.34;;;23.21;46.21
57606;BME280;43430;48.204;11.556;2022-07-19T07:23:47;96409.00;;;23.23;46.23
57606;BME280;43430;48.204;11.556;2022-07-19T07:26:13;96400.09;;;23.41;46.25
57606;BME280;43430;48.204;11.556;2022-07-19T07:28:38;96400.81;;;23.47;45.77
57606;BME280;43430;48.204;11.556;2022-07-19T07:31:04;96393.28;;;23.63;45.43
57606;BME280;43430;48.204;11.556;2022-07-19T07:33:29;96396.34;;;23.56;45.01
57606;BME280;43430;48.204;11.556;2022-07-19T07:35:55;96398.38;;;23.64;45.12
57606;BME280;43430;48.204;11.556;2022-07-19T07:38:20;96384.84;;;23.69;45.03
57606;BME280;43430;48.204;11.556;2022-07-19T07:40:45;96389.53;;;23.78;45.11
57606;BME280;43430;48.204;11.556;2022-07-19T07:43:11;96387.28;;;23.85;44.76
57606;BME280;43430;48.204;11.556;2022-07-19T07:45:37;96394.66;;;23.79;44.74
57606;BME280;43430;48.204;11.556;2022-07-19T07:48:02;96391.22;;;23.74;44.99
57606;BME280;43430;48.204;11.556;2022-07-19T07:50:28;96388.50;;;23.92;44.03
57606;BME280;43430;48.204;11.556;2022-07-19T07:52:53;96383.91;;;24.07;43.51
57606;BME280;43430;48.204;11.556;2022-07-19T07:55:19;96390.03;;;24.26;42.82
57606;BME280;43430;48.204;11.556;2022-07-19T07:57:44;96385.13;;;24.28;43.01
57606;BME280;43430;48.204;11.556;2022-07-19T08:00:10;96387.22;;;24.31;43.24
57606;BME280;43430;48.204;11.556;2022-07-19T08:02:39;96377.63;;;24.39;43.21
57606;BME280;43430;48.204;11.556;2022-07-19T08:05:05;96377.97;;;24.51;42.89
57606;BME280;43430;48.204;11.556;2022-07-19T08:07:30;96380.75;;;24.46;42.74
57606;BME280;43430;48.204;11.556;2022-07-19T08:09:56;96380.47;;;24.61;42.44
57606;BME280;43430;48.204;11.556;2022-07-19T08:12:24;96381.09;;;24.81;42.19
57606;BME280;43430;48.204;11.556;2022-07-19T08:14:49;96377.41;;;24.77;41.92
57606;BME280;43430;48.204;11.556;2022-07-19T08:17:15;96384.91;;;24.80;41.60
57606;BME280;43430;48.204;11.556;2022-07-19T08:19:40;96384.72;;;24.76;41.78
57606;BME280;43430;48.204;11.556;2022-07-19T08:22:05;96374.47;;;24.65;41.75
57606;BME280;43430;48.204;11.556;2022-07-19T08:24:31;96368.66;;;24.71;41.36
57606;BME280;43430;48.204;11.556;2022-07-19T08:26:56;96377.41;;;24.77;42.14
57606;BME280;43430;48.204;11.556;2022-07-19T08:29:22;96383.34;;;25.15;41.03
57606;BME280;43430;48.204;11.556;2022-07-19T08:31:47;96373.13;;;25.26;40.33
57606;BME280;43430;48.204;11.556;2022-07-19T08:34:12;96369.06;;;25.37;40.22
57606;BME280;43430;48.204;11.556;2022-07-19T08:36:38;96368.47;;;25.40;40.06
57606;BME280;43430;48.204;11.556;2022-07-19T08:39:03;96361.81;;;25.46;40.10
57606;BME280;43430;48.204;11.556;2022-07-19T08:41:29;96362.56;;;25.61;40.09
57606;BME280;43430;48.204;11.556;2022-07-19T08:43:54;96356.91;;;25.71;39.33
57606;BME280;43430;48.204;11.556;2022-07-19T08:46:21;96365.66;;;25.76;38.80
57606;BME280;43430;48.204;11.556;2022-07-19T08:48:47;96362.59;;;25.92;38.27
57606;BME280;43430;48.204;11.556;2022-07-19T08:51:13;96361.31;;;25.89;38.27
57606;BME280;43430;48.204;11.556;2022-07-19T08:53:42;96364.03;;;25.89;37.92
57606;BME280;43430;48.204;11.556;2022-07-19T08:56:08;96359.47;;;26.07;38.20
57606;BME280;43430;48.204;11.556;2022-07-19T08:58:52;96355.72;;;26.17;38.26
57606;BME280;43430;48.204;11.556;2022-07-19T09:01:18;96350.81;;;26.27;37.02
57606;BME280;43430;48.204;11.556;2022-07-19T09:04:06;96358.47;;;26.34;36.61
57606;BME280;43430;48.204;11.556;2022-07-19T09:06:42;96353.56;;;26.45;35.43
57606;BME280;43430;48.204;11.556;2022-07-19T09:09:08;96349.31;;;26.52;35.08
57606;BME280;43430;48.204;11.556;2022-07-19T09:11:36;96344.44;;;26.81;35.39
57606;BME280;43430;48.204;11.556;2022-07-19T09:14:09;96344.94;;;27.09;33.70
57606;BME280;43430;48.204;11.556;2022-07-19T09:16:50;96330.63;;;27.17;33.62
57606;BME280;43430;48.204;11.556;2022-07-19T09:19:17;96336.50;;;27.36;33.03
57606;BME280;43430;48.204;11.556;2022-07-19T09:24:21;96336.84;;;27.26;32.81
57606;BME280;43430;48.204;11.556;2022-07-19T09:27:00;96336.50;;;27.36;32.73
57606;BME280;43430;48.204;11.556;2022-07-19T09:29:27;96328.94;;;27.59;30.60
57606;BME280;43430;48.204;11.556;2022-07-19T09:32:06;96324.47;;;27.72;30.79
57606;BME280;43430;48.204;11.556;2022-07-19T09:34:34;96321.75;;;27.72;30.15
57606;BME280;43430;48.204;11.556;2022-07-19T09:37:10;96324.31;;;27.68;30.73
57606;BME280;43430;48.204;11.556;2022-07-19T09:39:35;96324.00;;;27.79;29.72
57606;BME280;43430;48.204;11.556;2022-07-19T09:42:02;96324.28;;;27.95;28.53
57606;BME280;43430;48.204;11.556;2022-07-19T09:44:28;96319.81;;;27.90;29.04
57606;BME280;43430;48.204;11.556;2022-07-19T09:46:54;96338.84;;;28.11;29.53
57606;BME280;43430;48.204;11.556;2022-07-19T09:49:20;96323.44;;;28.03;29.92
57606;BME280;43430;48.204;11.556;2022-07-19T09:51:51;96316.94;;;27.95;30.19
57606;BME280;43430;48.204;11.556;2022-07-19T09:54:19;96316.13;;;27.95;28.71
57606;BME280;43430;48.204;11.556;2022-07-19T09:57:03;96317.22;;;28.02;28.85
57606;BME280;43430;48.204;11.556;2022-07-19T09:59:29;96309.53;;;28.04;29.20
57606;BME280;43430;48.204;11.556;2022-07-19T10:01:56;96313.56;;;28.28;28.64
57606;BME280;43430;48.204;11.556;2022-07-19T10:04:23;96308.78;;;28.33;27.64
57606;BME280;43430;48.204;11.556;2022-07-19T10:06:50;96301.75;;;28.32;28.34
57606;BME280;43430;48.204;11.556;2022-07-19T10:09:18;96301.88;;;28.45;28.41
57606;BME280;43430;48.204;11.556;2022-07-19T10:11:44;96291.28;;;28.52;27.73
57606;BME280;43430;48.204;11.556;2022-07-19T10:14:10;96294.00;;;28.52;28.08
57606;BME280;43430;48.204;11.556;2022-07-19T10:16:58;96293.94;;;28.60;27.64
57606;BME280;43430;48.204;11.556;2022-07-19T10:19:40;96292.94;;;28.65;27.55
57606;BME280;43430;48.204;11.556;2022-07-19T10:22:11;96292.25;;;28.77;27.37
57606;BME280;43430;48.204;11.556;2022-07-19T10:25:17;96294.47;;;28.75;27.20
57606;BME280;43430;48.204;11.556;2022-07-19T10:27:48;96297.78;;;28.59;27.70
57606;BME280;43430;48.204;11.556;2022-07-19T10:32:42;96285.28;;;28.67;26.89
57606;BME280;43430;48.204;11.556;2022-07-19T10:35:25;96286.66;;;28.73;26.68
57606;BME280;43430;48.204;11.556;2022-07-19T10:43:13;96291.28;;;28.94;26.18
57606;BME280;43430;48.204;11.556;2022-07-19T10:45:40;96284.75;;;29.16;26.54
57606;BME280;43430;48.204;11.556;2022-07-19T10:48:09;96295.09;;;29.34;25.43
57606;BME280;43430;48.204;11.556;2022-07-19T10:50:54;96280.13;;;29.28;25.34
57606;BME280;43430;48.204;11.556;2022-07-19T11:01:17;96275.53;;;29.41;26.82
57606;BME280;43430;48.204;11.556;2022-07-19T11:03:44;96280.22;;;29.53;26.57
57606;BME280;43430;48.204;11.556;2022-07-19T11:06:19;96272.34;;;29.60;25.30
57606;BME280;43430;48.204;11.556;2022-07-19T11:08:44;96261.91;;;29.62;25.62
57606;BME280;43430;48.204;11.556;2022-07-19T11:11:15;96262.25;;;29.73;25.80
57606;BME280;43430;48.204;11.556;2022-07-19T11:13:46;96266.22;;;29.75;25.73
57606;BME280;43430;48.204;11.556;2022-07-19T11:16:12;96267.06;;;29.55;25.72
57606;BME280;43430;48.204;11.556;2022-07-19T11:18:38;96260.88;;;29.21;26.25
57606;BME280;43430;48.204;11.556;2022-07-19T11:21:04;96260.31;;;29.28;26.86
57606;BME280;43430;48.204;11.556;2022-07-19T11:23:32;96247.94;;;29.51;26.71
57606;BME280;43430;48.204;11.556;2022-07-19T11:26:15;96253.53;;;29.79;25.94
57606;BME280;43430;48.204;11.556;2022-07-19T11:28:44;96247.56;;;29.74;26.44
57606;BME280;43430;48.204;11.556;2022-07-19T11:31:20;96242.88;;;29.62;26.21
57606;BME280;43430;48.204;11.556;2022-07-19T11:33:48;96248.22;;;29.71;25.68
57606;BME280;43430;48.204;11.556;2022-07-19T11:36:15;96241.44;;;29.77;25.94
57606;BME280;43430;48.204;11.556;2022-07-19T11:38:48;96245.19;;;29.85;25.68
57606;BME280;43430;48.204;11.556;2022-07-19T11:41:24;96227.94;;;29.93;25.66
57606;BME280;43430;48.204;11.556;2022-07-19T11:46:29;96231.94;;;30.08;25.82
57606;BME280;43430;48.204;11.556;2022-07-19T11:49:00;96233.28;;;30.01;25.50
57606;BME280;43430;48.204;11.556;2022-07-19T11:51:26;96217.19;;;30.09;25.74
57606;BME280;43430;48.204;11.556;2022-07-19T11:53:53;96212.19;;;30.11;25.05
57606;BME280;43430;48.204;11.556;2022-07-19T11:56:24;96217.97;;;30.09;25.57
57606;BME280;43430;48.204;11.556;2022-07-19T11:58:51;96210.47;;;30.31;24.83
57606;BME280;43430;48.204;11.556;2022-07-19T12:01:25;96207.53;;;30.36;24.88
57606;BME280;43430;48.204;11.556;2022-07-19T12:06:54;96206.66;;;30.19;25.36
57606;BME280;43430;48.204;11.556;2022-07-19T12:09:25;96202.00;;;30.32;24.91
57606;BME280;43430;48.204;11.556;2022-07-19T12:11:53;96196.88;;;30.31;25.06
57606;BME280;43430;48.204;11.556;2022-07-19T12:16:49;96207.66;;;30.39;24.87
57606;BME280;43430;48.204;11.556;2022-07-19T12:19:15;96205.34;;;30.41;25.01
57606;BME280;43430;48.204;11.556;2022-07-19T12:21:44;96203.47;;;30.30;24.76
57606;BME280;43430;48.204;11.556;2022-07-19T12:24:27;96196.66;;;30.36;25.10
57606;BME280;43430;48.204;11.556;2022-07-19T12:29:34;96190.63;;;30.42;24.78
57606;BME280;43430;48.204;11.556;2022-07-19T12:32:05;96189.75;;;30.66;24.09
57606;BME280;43430;48.204;11.556;2022-07-19T12:34:48;96181.13;;;30.64;23.82
57606;BME280;43430;48.204;11.556;2022-07-19T12:45:01;96179.41;;;30.72;23.25
57606;BME280;43430;48.204;11.556;2022-07-19T12:47:27;96185.16;;;30.83;22.60
57606;BME280;43430;48.204;11.556;2022-07-19T12:49:52;96179.19;;;30.65;22.47
57606;BME280;43430;48.204;11.556;2022-07-19T12:52:17;96176.56;;;30.68;22.73
57606;BME280;43430;48.204;11.556;2022-07-19T12:54:42;96173.25;;;30.87;22.40
57606;BME280;43430;48.204;11.556;2022-07-19T12:57:08;96172.56;;;30.90;21.92
57606;BME280;43430;48.204;11.556;2022-07-19T12:59:33;96165.31;;;30.82;21.71
57606;BME280;43430;48.204;11.556;2022-07-19T13:02:15;96172.97;;;30.77;22.28
57606;BME280;43430;48.204;11.556;2022-07-19T13:04:42;96173.84;;;30.81;22.05
57606;BME280;43430;48.204;11.556;2022-07-19T13:07:09;96166.28;;;30.90;22.42
57606;BME280;43430;48.204;11.556;2022-07-19T13:09:35;96169.28;;;30.85;22.66
57606;BME280;43430;48.204;11.556;2022-07-19T13:12:02;96155.16;;;30.95;23.35
57606;BME280;43430;48.204;11.556;2022-07-19T13:14:28;96156.59;;;31.05;23.43
57606;BME280;43430;48.204;11.556;2022-07-19T13:16:53;96160.63;;;31.11;23.71
57606;BME280;43430;48.204;11.556;2022-07-19T13:19:19;96158.78;;;31.15;23.59
57606;BME280;43430;48.204;11.556;2022-07-19T13:21:44;96154.47;;;31.14;23.48
57606;BME280;43430;48.204;11.556;2022-07-19T13:24:10;96148.94;;;31.10;22.96
57606;BME280;43430;48.204;11.556;2022-07-19T13:26:35;96156.66;;;31.24;23.23